Time;durP1;ratioP1;P1;durP2;ratioP2;P2;SDS_P1;SDS_P2;PMS_P1;PMS_P2;Temp;Humidity;BMP_temperature;BMP_pressure;BME280_temperature;BME280_humidity;BME280_pressure;Samples;Min_cycle;Max_cycle;Signal;HPM_P1;HPM_P2
2022/06/28 00:02:06;;;;;;;7.53;1.10;;;13.00;99.90;;;;;;5008696;28;20033;-66
2022/06/28 00:04:32;;;;;;;10.57;1.23;;;13.00;99.90;;;;;;5010741;28;20030;-66
2022/06/28 00:06:58;;;;;;;8.40;1.13;;;13.00;99.90;;;;;;5009966;28;20029;-66
2022/06/28 00:09:24;;;;;;;5.75;0.70;;;13.00;99.90;;;;;;5005304;28;20031;-64
2022/06/28 00:11:50;;;;;;;8.43;0.80;;;12.90;99.90;;;;;;5009080;28;20390;-65
2022/06/28 00:17:00;;;;;;;9.52;1.52;;;12.60;99.90;;;;;;5010424;28;20095;-66
2022/06/28 00:19:26;;;;;;;6.97;1.27;;;12.50;99.90;;;;;;5008629;28;20037;-65
2022/06/28 00:21:52;;;;;;;7.82;1.15;;;12.50;99.90;;;;;;5009052;28;20021;-66
2022/06/28 00:24:17;;;;;;;8.25;1.23;;;12.30;99.90;;;;;;5008738;28;20083;-65
2022/06/28 00:26:43;;;;;;;9.10;1.00;;;12.20;99.90;;;;;;5010455;28;20026;-64
2022/06/28 00:29:09;;;;;;;7.25;1.48;;;12.20;99.90;;;;;;5007237;28;20436;-65
2022/06/28 00:31:34;;;;;;;4.25;0.75;;;12.10;99.90;;;;;;5008938;28;20048;-65
2022/06/28 00:34:02;;;;;;;8.05;1.27;;;12.10;99.90;;;;;;5010054;28;20041;-64
2022/06/28 00:36:27;;;;;;;6.75;1.15;;;12.20;99.90;;;;;;5022004;28;20030;-65
2022/06/28 00:38:53;;;;;;;8.35;1.17;;;12.20;99.90;;;;;;5010831;28;20041;-66
2022/06/28 00:41:19;;;;;;;6.65;1.20;;;12.20;99.90;;;;;;5006340;28;20037;-65
2022/06/28 00:43:45;;;;;;;9.80;1.23;;;12.20;99.90;;;;;;5006269;28;20485;-65
2022/06/28 00:46:12;;;;;;;6.13;1.27;;;12.10;99.90;;;;;;5007861;28;20030;-65
2022/06/28 00:48:38;;;;;;;6.40;1.25;;;12.00;99.90;;;;;;5010044;28;20063;-65
2022/06/28 00:51:04;;;;;;;5.53;1.05;;;12.00;99.90;;;;;;5008018;28;20386;-65
2022/06/28 00:53:30;;;;;;;7.35;1.10;;;12.00;99.90;;;;;;5010026;28;20560;-65
2022/06/28 00:55:56;;;;;;;6.93;1.10;;;12.00;99.90;;;;;;5008028;28;20026;-59
2022/06/28 00:58:22;;;;;;;11.15;1.40;;;12.00;99.90;;;;;;5007937;28;20034;-65
2022/06/28 01:00:49;;;;;;;5.30;1.08;;;12.00;99.90;;;;;;5010067;28;20095;-65
2022/06/28 01:03:20;;;;;;;7.55;0.98;;;12.00;99.90;;;;;;5007707;28;20493;-66
2022/06/28 01:05:46;;;;;;;8.02;1.55;;;12.00;99.90;;;;;;5009950;28;20029;-66
2022/06/28 01:08:12;;;;;;;7.65;1.70;;;12.00;99.90;;;;;;5006864;28;20034;-66
2022/06/28 01:10:39;;;;;;;5.45;1.23;;;12.00;99.90;;;;;;5009604;28;20037;-66
2022/06/28 01:13:07;;;;;;;10.75;1.08;;;12.10;99.90;;;;;;5005911;28;20111;-66
2022/06/28 01:15:33;;;;;;;5.18;1.02;;;12.10;99.90;;;;;;5009871;28;20486;-66
2022/06/28 01:18:03;;;;;;;6.60;1.75;;;12.10;99.90;;;;;;5008599;28;20030;-66
2022/06/28 01:20:28;;;;;;;8.73;1.17;;;12.00;99.90;;;;;;5007349;28;20116;-66
2022/06/28 01:22:54;;;;;;;7.53;1.33;;;12.00;99.90;;;;;;5009355;28;20113;-66
2022/06/28 01:25:22;;;;;;;10.05;1.08;;;12.00;99.90;;;;;;5004976;28;20556;-65
2022/06/28 01:27:47;;;;;;;9.00;1.17;;;11.90;99.90;;;;;;5004755;28;20129;-65
2022/06/28 01:30:13;;;;;;;6.30;0.85;;;11.80;99.90;;;;;;5006750;28;20060;-66
2022/06/28 01:32:40;;;;;;;5.15;1.63;;;11.70;99.90;;;;;;5009280;28;20084;-65
2022/06/28 01:35:06;;;;;;;5.68;1.00;;;11.70;99.90;;;;;;5007776;28;20030;-66
2022/06/28 01:37:33;;;;;;;5.68;1.13;;;11.70;99.90;;;;;;5009602;28;20054;-66
2022/06/28 01:39:59;;;;;;;7.00;1.15;;;11.80;99.90;;;;;;5008513;28;20050;-67
2022/06/28 01:42:28;;;;;;;5.88;1.08;;;11.70;99.90;;;;;;5000350;28;20041;-67
2022/06/28 01:44:55;;;;;;;4.18;0.90;;;11.60;99.90;;;;;;5001567;28;20112;-67
2022/06/28 01:47:22;;;;;;;7.85;0.90;;;11.60;99.90;;;;;;5007635;28;20080;-67
2022/06/28 01:49:49;;;;;;;3.83;1.00;;;11.50;99.90;;;;;;5008769;28;20109;-67
2022/06/28 01:52:15;;;;;;;6.63;1.23;;;11.50;99.90;;;;;;5007075;28;20033;-67
2022/06/28 01:54:41;;;;;;;5.95;0.95;;;11.50;99.90;;;;;;5009533;28;20022;-67
2022/06/28 01:57:07;;;;;;;9.95;1.25;;;11.60;99.90;;;;;;5007117;28;20034;-65
2022/06/28 01:59:32;;;;;;;6.70;0.90;;;11.60;99.90;;;;;;5002171;28;20124;-66
2022/06/28 02:01:58;;;;;;;6.13;0.95;;;11.50;99.90;;;;;;5009209;28;20053;-65
2022/06/28 02:04:27;;;;;;;6.53;0.77;;;11.50;99.90;;;;;;5007037;28;20041;-66
2022/06/28 02:06:53;;;;;;;8.00;1.40;;;11.40;99.90;;;;;;5004626;28;20022;-67
2022/06/28 02:09:19;;;;;;;4.72;0.98;;;11.30;99.90;;;;;;5007264;28;20026;-67
2022/06/28 02:11:45;;;;;;;9.27;1.40;;;11.30;99.90;;;;;;5008790;28;20033;-66
2022/06/28 02:14:11;;;;;;;9.73;1.05;;;11.20;99.90;;;;;;5006629;28;20127;-67
2022/06/28 02:16:37;;;;;;;7.22;1.77;;;11.10;99.90;;;;;;5007884;28;20070;-67
2022/06/28 02:19:04;;;;;;;5.72;1.33;;;11.20;99.90;;;;;;5007428;28;20077;-67
2022/06/28 02:21:36;;;;;;;8.65;1.13;;;11.20;99.90;;;;;;5005319;28;20034;-65
2022/06/28 02:24:02;;;;;;;6.82;1.02;;;11.20;99.90;;;;;;5008701;28;20029;-67
2022/06/28 02:26:27;;;;;;;11.55;1.70;;;11.20;99.90;;;;;;5003682;28;20026;-67
2022/06/28 02:28:53;;;;;;;10.75;1.67;;;11.20;99.90;;;;;;5008760;28;20036;-67
2022/06/28 02:31:19;;;;;;;7.20;0.90;;;11.30;99.90;;;;;;5007329;28;20046;-67
2022/06/28 02:33:44;;;;;;;6.57;0.80;;;11.40;99.90;;;;;;5008902;28;20037;-67
2022/06/28 02:41:36;;;;;;;8.57;1.27;;;11.40;99.90;;;;;;5005263;28;20022;-67
2022/06/28 02:44:02;;;;;;;9.32;1.20;;;11.50;99.90;;;;;;5008021;28;20030;-67
2022/06/28 02:46:28;;;;;;;9.48;2.30;;;11.40;99.90;;;;;;5003264;28;20022;-67
2022/06/28 02:48:53;;;;;;;4.53;0.80;;;11.30;99.90;;;;;;5012209;28;20033;-69
2022/06/28 02:51:20;;;;;;;9.40;1.25;;;11.30;99.90;;;;;;5009921;28;20117;-67
2022/06/28 02:53:46;;;;;;;6.40;1.00;;;11.40;99.90;;;;;;5010174;28;20034;-67
2022/06/28 02:56:12;;;;;;;11.40;1.20;;;11.50;99.90;;;;;;5009678;28;20466;-67
2022/06/28 02:58:38;;;;;;;7.05;1.13;;;11.40;99.90;;;;;;5011115;28;20052;-66
2022/06/28 03:01:03;;;;;;;7.05;0.75;;;11.50;99.90;;;;;;5009643;28;20109;-66
2022/06/28 03:03:29;;;;;;;9.13;1.83;;;11.40;99.90;;;;;;5011132;28;20065;-66
2022/06/28 03:05:55;;;;;;;7.63;1.08;;;11.50;99.90;;;;;;5010892;28;20018;-66
2022/06/28 03:08:20;;;;;;;5.43;0.93;;;11.50;99.90;;;;;;5009463;28;20034;-66
2022/06/28 03:10:46;;;;;;;7.50;1.52;;;11.40;99.90;;;;;;5012085;28;20026;-66
2022/06/28 03:13:12;;;;;;;5.13;1.10;;;11.50;99.90;;;;;;5007934;28;20033;-67
2022/06/28 03:15:37;;;;;;;8.63;1.15;;;11.50;99.90;;;;;;5009981;28;20033;-68
2022/06/28 03:18:03;;;;;;;6.88;0.90;;;11.50;99.90;;;;;;5010008;28;20161;-67
2022/06/28 03:20:29;;;;;;;8.48;1.30;;;11.60;99.90;;;;;;5011576;28;20091;-67
2022/06/28 03:22:55;;;;;;;7.45;1.13;;;11.60;99.90;;;;;;5009417;28;20022;-69
2022/06/28 03:25:21;;;;;;;8.35;2.03;;;11.60;99.90;;;;;;5007922;28;20029;-67
2022/06/28 03:27:47;;;;;;;7.47;1.52;;;11.70;99.90;;;;;;5010261;28;20030;-67
2022/06/28 03:30:13;;;;;;;10.27;1.42;;;11.60;99.90;;;;;;5008755;28;20034;-66
2022/06/28 03:32:40;;;;;;;8.07;1.27;;;11.60;99.90;;;;;;5009129;28;20034;-67
2022/06/28 03:35:07;;;;;;;8.07;1.65;;;11.80;99.90;;;;;;5008725;28;20483;-67
2022/06/28 03:37:33;;;;;;;12.80;1.67;;;12.00;99.90;;;;;;5010334;28;20544;-66
2022/06/28 03:39:59;;;;;;;8.32;1.67;;;11.90;99.90;;;;;;5010496;28;20045;-67
2022/06/28 03:42:25;;;;;;;9.38;1.52;;;12.00;99.90;;;;;;5008046;28;20026;-67
2022/06/28 03:44:51;;;;;;;6.63;1.60;;;12.00;99.90;;;;;;5011531;28;20040;-67
2022/06/28 03:47:17;;;;;;;4.93;0.93;;;11.90;99.90;;;;;;5009041;28;20058;-66
2022/06/28 03:49:43;;;;;;;8.07;1.02;;;11.80;99.90;;;;;;5011459;28;20041;-67
2022/06/28 03:52:09;;;;;;;5.47;0.68;;;11.80;99.90;;;;;;5008525;28;20508;-66
2022/06/28 03:54:35;;;;;;;7.30;1.05;;;11.80;99.90;;;;;;5004058;28;20026;-64
2022/06/28 03:57:01;;;;;;;11.90;1.48;;;11.90;99.90;;;;;;5010564;28;20080;-67
2022/06/28 03:59:27;;;;;;;9.52;1.48;;;11.90;99.90;;;;;;5007999;28;20038;-65
2022/06/28 04:01:52;;;;;;;6.75;1.10;;;11.90;99.90;;;;;;5010869;28;20029;-66
2022/06/28 04:04:18;;;;;;;8.15;1.08;;;11.80;99.90;;;;;;5005532;28;20052;-66
2022/06/28 04:06:44;;;;;;;3.75;1.08;;;11.80;99.90;;;;;;5010890;28;20386;-66
2022/06/28 04:09:10;;;;;;;10.48;1.30;;;11.60;99.90;;;;;;5009001;28;20030;-66
2022/06/28 04:11:36;;;;;;;7.93;1.58;;;11.60;99.90;;;;;;5009371;28;20494;-66
2022/06/28 04:14:01;;;;;;;6.80;1.48;;;11.60;99.90;;;;;;5009593;28;20388;-66
2022/06/28 04:16:27;;;;;;;8.38;1.05;;;11.60;99.90;;;;;;5009007;28;20026;-66
2022/06/28 04:18:54;;;;;;;7.90;1.08;;;11.50;99.90;;;;;;5007963;28;20038;-66
2022/06/28 04:21:20;;;;;;;7.70;1.55;;;11.60;99.90;;;;;;5008652;28;20113;-65
2022/06/28 04:23:46;;;;;;;8.15;0.98;;;11.70;99.90;;;;;;5010881;28;20104;-66
2022/06/28 04:26:13;;;;;;;10.30;1.75;;;11.80;99.90;;;;;;5007705;28;20504;-65
2022/06/28 04:28:39;;;;;;;8.60;1.45;;;12.00;99.90;;;;;;5003889;28;20028;-65
2022/06/28 04:31:05;;;;;;;4.35;0.73;;;12.10;99.90;;;;;;5007895;28;20564;-65
2022/06/28 04:33:31;;;;;;;7.13;1.30;;;12.10;99.90;;;;;;5008354;28;20026;-65
2022/06/28 04:35:57;;;;;;;9.40;1.60;;;12.20;99.90;;;;;;5004918;28;20056;-66
2022/06/28 04:38:23;;;;;;;6.78;1.63;;;12.20;99.90;;;;;;5007726;28;20042;-66
2022/06/28 04:40:49;;;;;;;6.38;1.25;;;12.30;99.90;;;;;;5010034;28;20030;-66
2022/06/28 04:43:14;;;;;;;8.15;1.40;;;12.40;99.90;;;;;;5007325;28;20030;-67
2022/06/28 04:45:40;;;;;;;7.90;1.15;;;12.30;99.90;;;;;;5010225;28;20045;-67
2022/06/28 04:48:06;;;;;;;7.40;1.40;;;12.30;99.90;;;;;;5007761;28;20029;-67
2022/06/28 04:50:32;;;;;;;7.78;1.23;;;12.40;99.90;;;;;;5008240;28;20065;-67
2022/06/28 04:52:58;;;;;;;9.63;1.55;;;12.40;99.90;;;;;;5005860;28;20113;-66
2022/06/28 04:55:24;;;;;;;3.85;1.10;;;12.40;99.90;;;;;;4999211;28;20219;-66
2022/06/28 04:57:50;;;;;;;9.25;1.35;;;12.30;99.90;;;;;;5008109;28;20513;-66
2022/06/28 05:00:16;;;;;;;5.40;1.27;;;12.30;99.90;;;;;;4996476;28;20427;-65
2022/06/28 05:02:41;;;;;;;8.52;1.77;;;12.30;99.90;;;;;;5009659;28;20025;-65
2022/06/28 05:05:08;;;;;;;9.23;1.30;;;12.40;99.90;;;;;;5007003;28;20030;-66
2022/06/28 05:07:35;;;;;;;5.57;1.10;;;12.40;99.90;;;;;;5009561;28;20034;-65
2022/06/28 05:10:01;;;;;;;6.65;1.00;;;12.40;99.90;;;;;;5009693;28;20050;-65
2022/06/28 05:12:27;;;;;;;10.60;2.03;;;12.30;99.90;;;;;;5007788;28;20030;-65
2022/06/28 05:14:53;;;;;;;6.20;1.08;;;12.40;99.90;;;;;;5014354;28;20021;-66
2022/06/28 05:17:18;;;;;;;8.43;1.85;;;12.50;99.90;;;;;;5009400;28;20386;-67
2022/06/28 05:19:44;;;;;;;10.13;1.30;;;12.70;99.90;;;;;;5009231;28;20402;-67
2022/06/28 05:22:10;;;;;;;8.73;2.25;;;12.90;99.90;;;;;;5003011;28;20610;-66
2022/06/28 05:24:37;;;;;;;6.15;1.30;;;13.00;99.90;;;;;;5009516;28;20038;-66
2022/06/28 05:27:04;;;;;;;10.80;1.67;;;13.20;99.90;;;;;;5009621;28;20048;-65
2022/06/28 05:29:29;;;;;;;12.18;1.75;;;13.30;99.90;;;;;;5008285;28;20026;-65
2022/06/28 05:31:55;;;;;;;8.80;1.27;;;13.60;99.90;;;;;;5009304;28;20042;-66
2022/06/28 05:34:21;;;;;;;11.95;1.27;;;13.70;99.90;;;;;;5008040;28;20029;-65
2022/06/28 05:36:47;;;;;;;11.30;1.10;;;13.70;99.90;;;;;;5006078;28;20060;-65
2022/06/28 05:39:13;;;;;;;10.18;1.60;;;13.80;99.90;;;;;;5005666;28;20066;-65
2022/06/28 05:41:41;;;;;;;10.57;1.98;;;13.90;99.90;;;;;;5009465;28;20029;-59
2022/06/28 05:44:08;;;;;;;8.32;2.35;;;13.90;99.90;;;;;;5004982;28;20112;-65
2022/06/28 05:46:33;;;;;;;7.07;1.10;;;14.00;99.90;;;;;;5009580;28;20033;-65
2022/06/28 05:48:59;;;;;;;6.68;0.82;;;14.10;99.90;;;;;;5009305;28;20029;-65
2022/06/28 05:51:25;;;;;;;3.47;1.08;;;14.10;99.90;;;;;;5005520;28;20033;-65
2022/06/28 05:53:51;;;;;;;7.85;0.80;;;14.20;99.90;;;;;;5009188;28;20506;-66
2022/06/28 05:56:16;;;;;;;6.57;1.30;;;14.30;99.90;;;;;;5006217;28;20506;-67
2022/06/28 05:58:42;;;;;;;4.68;0.63;;;14.40;99.90;;;;;;5003032;28;20034;-66
2022/06/28 06:01:08;;;;;;;13.65;1.50;;;14.50;99.90;;;;;;5007228;28;20145;-65
2022/06/28 06:03:33;;;;;;;10.32;1.67;;;14.60;99.90;;;;;;5004462;28;20026;-66
2022/06/28 06:06:00;;;;;;;10.45;1.35;;;14.60;99.90;;;;;;5006589;28;20036;-67
2022/06/28 06:08:25;;;;;;;9.90;1.30;;;14.60;99.90;;;;;;5006114;28;20045;-67
2022/06/28 06:10:51;;;;;;;12.82;1.55;;;14.70;99.90;;;;;;5012656;28;20022;-67
2022/06/28 06:13:17;;;;;;;3.47;1.33;;;14.70;99.90;;;;;;5007453;28;20030;-66
2022/06/28 06:15:43;;;;;;;12.95;1.95;;;14.70;99.90;;;;;;5006602;28;20478;-66
2022/06/28 06:18:08;;;;;;;5.38;1.00;;;14.70;99.90;;;;;;5010521;28;20026;-65
2022/06/28 06:20:34;;;;;;;7.05;0.80;;;14.80;99.90;;;;;;5012707;28;20052;-65
2022/06/28 06:23:00;;;;;;;5.93;1.05;;;14.70;99.90;;;;;;5012254;28;20022;-66
2022/06/28 06:25:26;;;;;;;5.43;0.50;;;14.80;99.90;;;;;;5010356;28;20041;-66
2022/06/28 06:27:51;;;;;;;6.68;0.93;;;14.90;99.90;;;;;;5011892;28;20076;-66
2022/06/28 06:30:17;;;;;;;7.55;0.70;;;15.10;99.90;;;;;;5007711;28;20065;-65
2022/06/28 06:32:43;;;;;;;10.65;1.55;;;15.10;99.90;;;;;;5003543;28;20048;-66
2022/06/28 06:35:09;;;;;;;11.32;1.95;;;15.20;99.90;;;;;;5009696;28;20022;-66
2022/06/28 06:37:35;;;;;;;5.40;1.23;;;15.20;99.90;;;;;;5015018;28;20030;-66
2022/06/28 06:40:01;;;;;;;10.55;1.27;;;15.20;99.90;;;;;;5012379;28;20068;-66
2022/06/28 06:42:27;;;;;;;6.45;1.00;;;15.20;99.90;;;;;;5009733;28;20029;-66
2022/06/28 06:44:53;;;;;;;4.35;0.90;;;15.30;99.90;;;;;;5010821;28;20025;-66
2022/06/28 06:47:18;;;;;;;5.35;1.35;;;15.30;99.90;;;;;;5011853;28;20032;-65
2022/06/28 06:49:44;;;;;;;8.50;1.48;;;15.30;99.90;;;;;;5017185;28;20026;-65
2022/06/28 06:52:10;;;;;;;12.10;1.50;;;15.40;99.90;;;;;;5009949;28;20069;-65
2022/06/28 06:54:36;;;;;;;7.90;0.73;;;15.40;99.90;;;;;;5004965;28;20026;-66
2022/06/28 06:57:01;;;;;;;5.03;1.05;;;15.40;99.90;;;;;;5004835;28;20072;-65
2022/06/28 06:59:27;;;;;;;10.43;1.33;;;15.50;99.90;;;;;;5006688;28;20038;-66
2022/06/28 07:01:52;;;;;;;6.68;1.30;;;15.40;99.90;;;;;;5005648;28;20037;-66
2022/06/28 07:04:18;;;;;;;4.90;0.90;;;15.50;99.90;;;;;;5001683;28;20080;-65
2022/06/28 07:06:44;;;;;;;8.00;1.27;;;15.40;99.90;;;;;;5005437;28;20485;-66
2022/06/28 07:09:10;;;;;;;10.07;1.20;;;15.40;99.90;;;;;;5006720;28;20485;-66
2022/06/28 07:11:36;;;;;;;6.38;1.17;;;15.40;99.90;;;;;;5011881;28;20030;-66
2022/06/28 07:14:03;;;;;;;8.98;1.35;;;15.60;99.90;;;;;;5001543;28;20125;-67
2022/06/28 07:16:29;;;;;;;7.40;0.90;;;15.60;99.90;;;;;;5010676;28;20026;-65
2022/06/28 07:18:54;;;;;;;10.65;1.23;;;15.80;99.90;;;;;;5002814;28;20079;-66
2022/06/28 07:21:20;;;;;;;7.88;0.90;;;15.80;99.90;;;;;;5005757;28;20526;-66
2022/06/28 07:23:46;;;;;;;8.73;1.17;;;15.90;99.90;;;;;;5006074;28;20026;-65
2022/06/28 07:26:12;;;;;;;4.88;1.30;;;15.90;99.90;;;;;;5003548;28;20113;-64
2022/06/28 07:28:37;;;;;;;7.45;1.38;;;16.10;99.90;;;;;;5009455;28;20026;-65
2022/06/28 07:31:04;;;;;;;9.60;1.23;;;16.20;99.90;;;;;;5010845;28;20058;-66
2022/06/28 07:33:30;;;;;;;3.33;1.00;;;16.50;99.90;;;;;;4998264;28;20026;-65
2022/06/28 07:35:56;;;;;;;7.97;1.63;;;16.50;99.90;;;;;;5008490;28;20401;-65
2022/06/28 07:38:21;;;;;;;6.03;0.90;;;16.60;99.90;;;;;;5008817;28;20108;-65
2022/06/28 07:40:47;;;;;;;5.13;1.10;;;16.50;99.90;;;;;;5009078;28;20078;-65
2022/06/28 07:43:13;;;;;;;7.50;1.00;;;16.50;99.90;;;;;;5008306;28;20033;-65
2022/06/28 07:45:40;;;;;;;13.75;0.95;;;16.50;99.90;;;;;;5010214;28;20030;-66
2022/06/28 07:48:07;;;;;;;7.63;1.38;;;16.40;99.90;;;;;;5007991;28;20026;-65
2022/06/28 07:53:18;;;;;;;6.70;0.88;;;16.40;99.90;;;;;;5007971;28;20088;-65
2022/06/28 07:55:44;;;;;;;8.95;1.08;;;16.50;99.90;;;;;;5010485;28;20033;-65
2022/06/28 07:58:10;;;;;;;7.63;0.60;;;16.50;99.90;;;;;;5007739;28;20108;-65
2022/06/28 08:00:36;;;;;;;4.80;0.82;;;16.50;99.90;;;;;;5010030;28;20490;-64
2022/06/28 08:03:02;;;;;;;8.10;1.10;;;16.50;99.90;;;;;;5008583;28;20096;-64
2022/06/28 08:05:28;;;;;;;6.38;0.75;;;16.50;99.90;;;;;;5008714;28;20030;-65
2022/06/28 08:07:54;;;;;;;10.48;0.80;;;16.60;99.90;;;;;;5009343;28;20022;-66
2022/06/28 08:10:19;;;;;;;6.10;0.60;;;16.70;99.90;;;;;;5007064;28;20030;-65
2022/06/28 08:12:45;;;;;;;6.38;0.57;;;16.90;99.90;;;;;;5004161;28;20026;-65
2022/06/28 08:15:12;;;;;;;3.85;0.93;;;17.10;99.90;;;;;;5006833;28;20033;-65
2022/06/28 08:17:37;;;;;;;5.93;0.73;;;17.20;99.90;;;;;;5009693;28;20117;-65
2022/06/28 08:20:04;;;;;;;5.57;0.60;;;17.20;99.90;;;;;;5006295;28;20116;-67
2022/06/28 08:22:30;;;;;;;2.17;0.75;;;17.10;99.90;;;;;;5010370;28;20512;-65
2022/06/28 08:24:55;;;;;;;5.30;0.90;;;17.30;99.90;;;;;;5009505;28;20136;-63
2022/06/28 08:27:21;;;;;;;6.43;1.08;;;17.40;99.90;;;;;;5006177;28;20060;-64
2022/06/28 08:29:47;;;;;;;6.63;1.52;;;17.70;99.90;;;;;;5009333;28;20474;-65
2022/06/28 08:32:16;;;;;;;5.50;1.58;;;17.70;99.90;;;;;;5007862;28;20343;-66
2022/06/28 08:34:42;;;;;;;7.53;1.42;;;17.60;99.90;;;;;;5010847;28;20037;-65
2022/06/28 08:37:07;;;;;;;5.10;0.88;;;17.50;99.90;;;;;;5010929;28;20022;-65
2022/06/28 08:39:33;;;;;;;4.85;0.73;;;17.40;99.90;;;;;;5011475;28;20550;-65
2022/06/28 08:42:05;;;;;;;7.40;0.57;;;17.50;99.90;;;;;;5009047;28;20080;-65
2022/06/28 08:44:34;;;;;;;3.60;1.00;;;17.50;99.90;;;;;;5004175;28;20116;-65
2022/06/28 08:47:00;;;;;;;6.93;1.15;;;17.40;99.90;;;;;;5005327;28;20018;-65
2022/06/28 08:49:44;;;;;;;5.43;0.90;;;17.50;99.90;;;;;;5000924;28;20093;-65
2022/06/28 08:52:09;;;;;;;4.68;0.50;;;17.80;99.90;;;;;;5003828;28;20038;-66
2022/06/28 08:54:36;;;;;;;12.38;1.40;;;18.10;99.90;;;;;;5008368;28;20152;-66
2022/06/28 08:57:04;;;;;;;9.07;3.80;;;18.30;99.90;;;;;;5008110;28;20505;-66
2022/06/28 08:59:31;;;;;;;3.10;0.60;;;18.70;99.90;;;;;;5003491;28;20085;-66
2022/06/28 09:01:56;;;;;;;5.57;0.55;;;18.90;99.90;;;;;;5019098;28;20371;-65
2022/06/28 09:04:22;;;;;;;6.65;0.65;;;18.80;99.90;;;;;;5005079;28;20093;-66
2022/06/28 09:06:48;;;;;;;2.45;0.80;;;18.60;99.90;;;;;;5009537;28;20030;-65
2022/06/28 09:09:14;;;;;;;5.00;0.98;;;18.70;99.90;;;;;;5001987;28;20022;-66
2022/06/28 09:11:44;;;;;;;4.18;0.70;;;18.90;99.90;;;;;;5005337;28;20109;-65
2022/06/28 09:14:24;;;;;;;5.93;0.55;;;18.90;99.90;;;;;;4997820;28;20486;-66
2022/06/28 09:16:51;;;;;;;14.15;1.27;;;19.00;99.90;;;;;;5002412;28;20088;-65
2022/06/28 09:19:31;;;;;;;3.88;0.73;;;19.00;99.90;;;;;;5003770;28;20132;-65
2022/06/28 09:21:56;;;;;;;7.32;0.93;;;18.80;99.90;;;;;;5008119;28;20093;-67
2022/06/28 09:24:25;;;;;;;5.93;0.75;;;18.60;99.90;;;;;;5007214;28;20021;-66
2022/06/28 09:26:59;;;;;;;4.93;0.80;;;18.70;99.90;;;;;;5006504;28;20030;-66
2022/06/28 09:29:24;;;;;;;5.70;0.60;;;18.70;99.90;;;;;;5003669;28;20046;-65
2022/06/28 09:31:51;;;;;;;5.10;0.88;;;18.60;99.90;;;;;;5004528;28;20046;-65
2022/06/28 09:34:17;;;;;;;8.15;0.82;;;18.70;99.90;;;;;;5006416;28;20223;-65
2022/06/28 09:36:57;;;;;;;4.03;1.00;;;18.80;99.90;;;;;;5008713;28;20120;-65
2022/06/28 09:39:28;;;;;;;3.72;0.55;;;18.90;99.90;;;;;;5003438;28;20042;-65
2022/06/28 09:41:56;;;;;;;3.07;0.57;;;18.80;99.90;;;;;;5007879;28;20082;-65
2022/06/28 09:44:27;;;;;;;3.50;0.50;;;19.00;99.90;;;;;;5010900;28;20038;-65
2022/06/28 09:46:54;;;;;;;5.85;1.27;;;19.10;99.90;;;;;;5005890;28;20548;-65
2022/06/28 09:49:26;;;;;;;4.22;1.05;;;19.00;99.90;;;;;;5009816;28;20036;-65
2022/06/28 09:51:53;;;;;;;6.15;0.75;;;19.00;99.90;;;;;;5006090;28;20034;-65
2022/06/28 09:54:20;;;;;;;5.75;0.75;;;19.20;99.90;;;;;;5008952;28;20469;-65
2022/06/28 09:56:54;;;;;;;5.93;0.80;;;19.10;99.90;;;;;;5010327;28;20489;-64
2022/06/28 09:59:21;;;;;;;6.30;1.17;;;19.40;99.90;;;;;;5008857;28;20052;-65
2022/06/28 10:01:48;;;;;;;3.35;0.40;;;19.40;99.90;;;;;;5010718;28;20026;-66
2022/06/28 10:04:14;;;;;;;1.83;0.60;;;19.50;99.90;;;;;;5007159;28;20034;-66
2022/06/28 10:06:41;;;;;;;6.10;0.85;;;19.60;99.90;;;;;;5011194;28;20018;-66
2022/06/28 10:09:07;;;;;;;2.83;0.70;;;19.60;99.70;;;;;;5010642;28;20030;-65
2022/06/28 10:15:01;;;;;;;2.67;0.75;;;19.60;98.60;;;;;;5010848;28;20065;-65
2022/06/28 10:17:39;;;;;;;3.20;0.70;;;19.60;98.60;;;;;;5003764;28;20029;-65
2022/06/28 10:20:09;;;;;;;2.67;0.35;;;19.60;97.20;;;;;;5008348;28;20061;-65
2022/06/28 10:22:35;;;;;;;7.03;0.65;;;19.50;97.80;;;;;;5010587;28;20050;-65
2022/06/28 10:25:02;;;;;;;3.47;0.57;;;19.30;99.60;;;;;;5011677;28;20058;-66
2022/06/28 10:27:29;;;;;;;5.18;0.60;;;19.30;99.90;;;;;;5001752;28;20025;-64
2022/06/28 10:29:57;;;;;;;7.53;0.75;;;19.60;99.90;;;;;;5007205;28;20051;-64
2022/06/28 10:32:44;;;;;;;3.78;0.82;;;20.30;99.90;;;;;;5008428;28;20033;-65
2022/06/28 10:35:10;;;;;;;7.57;0.70;;;20.30;99.90;;;;;;5007056;28;20034;-65
2022/06/28 10:37:56;;;;;;;6.22;0.73;;;20.30;99.90;;;;;;5000297;28;20505;-65
2022/06/28 10:40:24;;;;;;;3.80;0.77;;;20.30;99.90;;;;;;5009555;28;20041;-66
2022/06/28 10:42:52;;;;;;;5.78;0.52;;;19.90;99.90;;;;;;5003643;28;20040;-65
2022/06/28 10:45:20;;;;;;;4.72;1.15;;;19.80;99.90;;;;;;5007662;28;20025;-63
2022/06/28 10:48:12;;;;;;;3.15;0.50;;;19.60;99.90;;;;;;5011222;28;20030;-64
2022/06/28 10:50:57;;;;;;;9.93;0.98;;;19.50;99.90;;;;;;5002896;28;20038;-64
2022/06/28 10:53:24;;;;;;;2.30;0.40;;;19.60;99.90;;;;;;4999378;28;20022;-65
2022/06/28 10:56:14;;;;;;;6.43;0.75;;;19.70;99.90;;;;;;5007360;28;20047;-65
2022/06/28 10:58:55;;;;;;;5.53;0.63;;;19.80;99.90;;;;;;4998995;28;20482;-64
2022/06/28 11:01:47;;;;;;;4.03;0.50;;;19.80;99.90;;;;;;5008335;28;20030;-64
2022/06/28 11:04:18;;;;;;;7.60;0.60;;;19.70;99.90;;;;;;5006056;28;20057;-64
2022/06/28 11:06:50;;;;;;;2.65;0.63;;;19.70;99.90;;;;;;5006721;28;20034;-64
2022/06/28 11:09:37;;;;;;;3.27;0.70;;;20.10;99.90;;;;;;5007156;28;20112;-65
2022/06/28 11:12:13;;;;;;;2.45;1.17;;;20.50;99.90;;;;;;5003770;28;20660;-65
2022/06/28 11:15:02;;;;;;;3.83;0.85;;;20.60;99.90;;;;;;5003188;28;20030;-65
2022/06/28 11:17:33;;;;;;;1.67;0.70;;;20.80;99.90;;;;;;5025801;28;20390;-65
2022/06/28 11:20:24;;;;;;;4.70;1.00;;;20.90;99.90;;;;;;5005661;28;20061;-66
2022/06/28 11:22:51;;;;;;;4.57;1.10;;;21.10;99.90;;;;;;4999732;28;20027;-65
2022/06/28 11:25:22;;;;;;;4.63;0.82;;;21.30;98.80;;;;;;5006037;28;20030;-66
2022/06/28 11:27:53;;;;;;;3.22;1.27;;;21.40;96.30;;;;;;5003914;28;20029;-66
2022/06/28 11:30:21;;;;;;;2.97;0.90;;;21.40;95.90;;;;;;5006938;28;20080;-65
2022/06/28 11:32:50;;;;;;;4.55;0.98;;;21.60;95.00;;;;;;5011204;28;20513;-66
2022/06/28 11:35:20;;;;;;;6.20;1.38;;;21.40;96.80;;;;;;5009113;28;20029;-65
2022/06/28 11:38:05;;;;;;;5.80;1.02;;;21.50;98.00;;;;;;5009460;28;20512;-65
2022/06/28 11:40:50;;;;;;;5.25;1.15;;;21.60;96.80;;;;;;5010060;28;20124;-66
2022/06/28 11:43:18;;;;;;;2.60;1.30;;;21.40;98.40;;;;;;5004529;28;20080;-66
2022/06/28 11:45:50;;;;;;;5.65;1.45;;;21.30;98.60;;;;;;5004250;28;20112;-64
2022/06/28 11:48:22;;;;;;;4.40;1.65;;;21.60;98.90;;;;;;5007459;28;20026;-64
2022/06/28 11:50:53;;;;;;;3.92;1.70;;;21.60;99.10;;;;;;5003502;28;20387;-65
2022/06/28 11:53:20;;;;;;;5.78;1.52;;;21.70;99.20;;;;;;4999098;28;20030;-65
2022/06/28 11:55:52;;;;;;;3.90;1.70;;;22.30;98.70;;;;;;5007320;28;20038;-65
2022/06/28 11:58:20;;;;;;;4.63;1.70;;;22.50;98.10;;;;;;5001226;28;20034;-64
2022/06/28 12:01:05;;;;;;;5.00;1.90;;;22.70;98.40;;;;;;5005511;28;20065;-65
2022/06/28 12:03:32;;;;;;;6.18;1.63;;;22.10;99.90;;;;;;5005753;28;20038;-65
2022/06/28 12:06:00;;;;;;;6.43;2.38;;;22.70;99.40;;;;;;5006112;28;20045;-65
2022/06/28 12:08:45;;;;;;;3.72;1.05;;;23.20;98.50;;;;;;5002898;28;20037;-65
2022/06/28 12:11:30;;;;;;;5.20;1.67;;;23.50;97.10;;;;;;5007426;28;20099;-65
2022/06/28 12:13:57;;;;;;;5.53;2.00;;;22.70;98.40;;;;;;5010445;28;20355;-65
2022/06/28 12:16:23;;;;;;;1.95;1.00;;;22.60;99.10;;;;;;5007500;28;20032;-64
2022/06/28 12:18:54;;;;;;;6.18;1.23;;;22.70;98.70;;;;;;5006460;28;20049;-64
2022/06/28 12:21:20;;;;;;;2.92;1.30;;;23.00;98.30;;;;;;5002896;28;20023;-65
2022/06/28 12:23:54;;;;;;;2.90;1.10;;;22.80;98.40;;;;;;5006954;28;20044;-65
2022/06/28 12:26:21;;;;;;;4.80;1.10;;;23.60;97.80;;;;;;5004565;28;20061;-65
2022/06/28 12:28:47;;;;;;;4.35;0.80;;;23.80;96.40;;;;;;5008388;28;20030;-65
2022/06/28 12:31:13;;;;;;;8.38;2.47;;;23.60;96.70;;;;;;5005856;28;20130;-64
2022/06/28 12:33:39;;;;;;;3.90;1.10;;;22.90;98.00;;;;;;5004256;28;20109;-65
2022/06/28 12:36:05;;;;;;;1.33;0.68;;;23.10;98.20;;;;;;5003238;28;20029;-65
2022/06/28 12:38:31;;;;;;;4.72;1.08;;;23.50;96.60;;;;;;5003515;28;20022;-65
2022/06/28 12:40:57;;;;;;;8.07;1.85;;;24.00;96.50;;;;;;5009065;28;20037;-59
2022/06/28 12:43:23;;;;;;;2.88;1.17;;;24.30;95.40;;;;;;4999799;28;20034;-65
2022/06/28 12:45:49;;;;;;;4.22;0.70;;;24.50;94.30;;;;;;5009870;28;20029;-65
2022/06/28 12:48:15;;;;;;;4.60;0.90;;;24.60;94.10;;;;;;5001271;28;20022;-66
2022/06/28 12:50:41;;;;;;;9.07;1.10;;;24.80;93.60;;;;;;5009841;28;20044;-65
2022/06/28 12:53:08;;;;;;;4.20;0.93;;;24.70;94.50;;;;;;5007902;28;20030;-65
2022/06/28 12:55:34;;;;;;;3.47;0.70;;;24.70;94.60;;;;;;5007706;28;20797;-65
2022/06/28 12:58:00;;;;;;;4.00;1.00;;;25.00;93.80;;;;;;5000097;28;20026;-65
2022/06/28 13:00:25;;;;;;;4.70;0.80;;;25.00;93.20;;;;;;5005842;28;20041;-66
2022/06/28 13:02:51;;;;;;;3.97;0.93;;;25.10;93.50;;;;;;5007368;28;20029;-65